createdAt,value
2019-03-30T00:02:06.257Z,102540.33
2019-03-30T00:04:34.723Z,102538.37
2019-03-30T00:07:03.196Z,102539.03
2019-03-30T00:09:31.688Z,102540.47
2019-03-30T00:12:00.148Z,102538.92
2019-03-30T00:14:28.598Z,102534.38
2019-03-30T00:16:57.115Z,102539.29
2019-03-30T00:19:34.894Z,102537.36
2019-03-30T00:21:55.942Z,102533.80
2019-03-30T00:24:24.470Z,102534.92
2019-03-30T00:26:53.071Z,102534.42
2019-03-30T00:29:21.539Z,102531.67
2019-03-30T00:31:50.035Z,102530.38
2019-03-30T00:34:18.501Z,102526.03
2019-03-30T00:36:47.175Z,102525.12
2019-03-30T00:39:15.647Z,102520.30
2019-03-30T00:41:44.123Z,102511.26
2019-03-30T00:44:12.595Z,102512.92
2019-03-30T00:46:41.112Z,102514.15
2019-03-30T00:49:09.568Z,102510.89
2019-03-30T00:51:38.187Z,102496.59
2019-03-30T00:54:06.694Z,102505.16
2019-03-30T00:56:35.165Z,102491.58
2019-03-30T00:59:03.620Z,102491.83
2019-03-30T01:01:32.197Z,102487.37
2019-03-30T01:04:00.677Z,102492.38
2019-03-30T01:06:29.214Z,102485.35
2019-03-30T01:08:57.708Z,102484.78
2019-03-30T01:11:26.180Z,102483.39
2019-03-30T01:13:54.638Z,102472.02
2019-03-30T01:16:23.146Z,102480.13
2019-03-30T01:18:51.603Z,102469.75
2019-03-30T01:21:20.066Z,102467.00
2019-03-30T01:23:48.670Z,102465.30
2019-03-30T01:26:17.133Z,102462.62
2019-03-30T01:28:45.595Z,102458.17
2019-03-30T01:31:14.099Z,102457.70
2019-03-30T01:33:42.569Z,102448.57
2019-03-30T01:36:11.098Z,102449.39
2019-03-30T01:38:39.593Z,102448.88
2019-03-30T01:41:08.214Z,102445.01
2019-03-30T01:43:36.816Z,102446.23
2019-03-30T01:46:05.323Z,102445.73
2019-03-30T01:48:33.788Z,102441.38
2019-03-30T01:51:02.259Z,102431.37
2019-03-30T01:53:30.787Z,102436.12
2019-03-30T01:55:59.250Z,102432.66
2019-03-30T01:58:27.723Z,102435.64
2019-03-30T02:00:56.238Z,102429.03
2019-03-30T02:03:24.716Z,102427.33
2019-03-30T02:05:53.174Z,102425.16
2019-03-30T02:08:21.671Z,102418.61
2019-03-30T02:10:50.129Z,102418.14
2019-03-30T02:13:18.582Z,102426.25
2019-03-30T02:15:47.085Z,102424.89
2019-03-30T02:18:15.544Z,102431.24
2019-03-30T02:20:46.429Z,102426.59
2019-03-30T02:23:14.933Z,102420.52
2019-03-30T02:25:43.785Z,102418.28
2019-03-30T02:28:12.297Z,102418.66
2019-03-30T02:30:40.800Z,102422.93
2019-03-30T02:33:09.374Z,102427.62
2019-03-30T02:35:37.814Z,102418.18
2019-03-30T02:38:06.402Z,102416.79
2019-03-30T02:40:34.849Z,102412.04
2019-03-30T02:43:03.326Z,102408.17
2019-03-30T02:45:31.840Z,102409.86
2019-03-30T02:48:00.320Z,102410.69
2019-03-30T02:50:28.796Z,102408.89
2019-03-30T02:52:57.288Z,102405.83
2019-03-30T02:55:25.764Z,102408.41
2019-03-30T02:57:54.218Z,102407.13
2019-03-30T03:00:22.710Z,102401.08
2019-03-30T03:02:51.167Z,102403.73
2019-03-30T03:05:20.011Z,102393.72
2019-03-30T03:07:48.524Z,102392.94
2019-03-30T03:10:17.148Z,102388.56
2019-03-30T03:12:45.650Z,102384.69
2019-03-30T03:15:14.315Z,102379.47
2019-03-30T03:17:42.785Z,102377.30
2019-03-30T03:20:11.310Z,102383.74
2019-03-30T03:22:39.815Z,102376.38
2019-03-30T03:25:08.560Z,102374.20
2019-03-30T03:27:37.445Z,102372.45
2019-03-30T03:30:06.674Z,102373.63
2019-03-30T03:32:35.185Z,102371.46
2019-03-30T03:35:03.635Z,102370.08
2019-03-30T03:37:44.834Z,102370.98
2019-03-30T03:40:02.311Z,102369.19
2019-03-30T03:42:30.762Z,102369.19
2019-03-30T03:44:59.290Z,102361.86
2019-03-30T03:47:27.753Z,102370.89
2019-03-30T03:49:56.211Z,102369.59
2019-03-30T03:52:24.701Z,102366.92
2019-03-30T03:54:53.939Z,102357.02
2019-03-30T03:57:22.570Z,102358.20
2019-03-30T03:59:52.338Z,102359.90
2019-03-30T04:02:21.581Z,102352.57
2019-03-30T04:04:50.519Z,102365.05
2019-03-30T04:07:19.506Z,102359.42
2019-03-30T04:09:49.753Z,102359.73
2019-03-30T04:12:18.791Z,102356.27
2019-03-30T04:14:50.469Z,102356.69
2019-03-30T04:17:19.006Z,102351.02
2019-03-30T04:19:47.460Z,102356.11
2019-03-30T04:22:15.979Z,102345.22
2019-03-30T04:24:44.460Z,102346.81
2019-03-30T04:27:12.922Z,102342.85
2019-03-30T04:29:41.804Z,102339.80
2019-03-30T04:32:10.274Z,102342.27
2019-03-30T04:34:38.728Z,102344.86
2019-03-30T04:37:07.222Z,102340.41
2019-03-30T04:39:35.687Z,102342.01
2019-03-30T04:42:04.216Z,102336.78
2019-03-30T04:44:32.733Z,102336.27
2019-03-30T04:47:01.208Z,102338.86
2019-03-30T04:49:29.685Z,102345.70
2019-03-30T04:51:58.334Z,102338.28
2019-03-30T04:54:26.937Z,102339.09
2019-03-30T04:56:55.397Z,102335.23
2019-03-30T04:59:23.901Z,102335.53
2019-03-30T05:01:52.383Z,102344.55
2019-03-30T05:04:20.863Z,102335.94
2019-03-30T05:06:49.385Z,102342.80
2019-03-30T05:09:17.871Z,102338.83
2019-03-30T05:11:46.344Z,102343.16
2019-03-30T05:14:16.496Z,102351.87
2019-03-30T05:16:44.987Z,102338.59
2019-03-30T05:19:13.458Z,102345.03
2019-03-30T05:21:41.941Z,102342.45
2019-03-30T05:24:10.413Z,102344.15
2019-03-30T05:26:38.883Z,102346.31
2019-03-30T05:29:07.387Z,102335.23
2019-03-30T05:31:36.079Z,102336.21
2019-03-30T05:34:04.645Z,102334.98
2019-03-30T05:36:33.179Z,102329.42
2019-03-30T05:39:01.643Z,102335.09
2019-03-30T05:41:30.103Z,102332.92
2019-03-30T05:43:58.584Z,102332.81
2019-03-30T05:46:27.050Z,102329.66
2019-03-30T05:48:55.521Z,102330.07
2019-03-30T05:51:24.018Z,102328.07
2019-03-30T05:53:52.487Z,102331.22
2019-03-30T05:56:20.958Z,102327.21
2019-03-30T05:58:49.468Z,102330.12
2019-03-30T06:01:17.928Z,102322.75
2019-03-30T06:03:46.471Z,102317.92
2019-03-30T06:06:14.950Z,102319.06
2019-03-30T06:08:43.423Z,102314.73
2019-03-30T06:11:11.882Z,102318.63
2019-03-30T06:13:40.395Z,102313.41
2019-03-30T06:16:08.867Z,102306.08
2019-03-30T06:18:37.322Z,102303.44
2019-03-30T06:21:05.865Z,102302.56
2019-03-30T06:23:34.321Z,102299.82
2019-03-30T06:26:02.781Z,102295.38
2019-03-30T06:28:31.283Z,102295.16
2019-03-30T06:30:59.738Z,102291.50
2019-03-30T06:33:28.305Z,102294.83
2019-03-30T06:35:56.794Z,102292.09
2019-03-30T06:38:25.265Z,102287.08
2019-03-30T06:40:53.726Z,102292.07
2019-03-30T06:43:22.231Z,102288.44
2019-03-30T06:45:50.700Z,102298.66
2019-03-30T06:48:19.171Z,102299.47
2019-03-30T06:50:48.326Z,102295.04
2019-03-30T06:53:16.807Z,102289.91
2019-03-30T06:55:45.267Z,102291.20
2019-03-30T06:58:13.763Z,102293.34
2019-03-30T07:00:42.224Z,102292.43
2019-03-30T07:03:10.690Z,102287.17
2019-03-30T07:05:39.928Z,102282.78
2019-03-30T07:08:11.557Z,102284.45
2019-03-30T07:10:40.046Z,102283.41
2019-03-30T07:13:08.922Z,102285.31
2019-03-30T07:15:40.566Z,102275.61
2019-03-30T07:18:09.109Z,102274.54
2019-03-30T07:20:37.595Z,102274.91
2019-03-30T07:23:12.285Z,102270.14
2019-03-30T07:25:36.253Z,102268.82
2019-03-30T07:28:04.751Z,102262.29
2019-03-30T07:30:33.208Z,102267.41
2019-03-30T07:33:01.674Z,102260.90
2019-03-30T07:35:31.253Z,102259.53
2019-03-30T07:37:59.727Z,102265.18
2019-03-30T07:40:28.218Z,102266.02
2019-03-30T07:42:56.802Z,102264.35
2019-03-30T07:45:25.278Z,102263.05
2019-03-30T07:47:53.749Z,102271.28
2019-03-30T07:50:22.317Z,102269.97
2019-03-30T07:52:50.786Z,102270.45
2019-03-30T07:55:19.252Z,102263.53
2019-03-30T07:57:47.878Z,102263.55
2019-03-30T08:00:16.418Z,102264.41
2019-03-30T08:02:44.880Z,102252.23
2019-03-30T08:05:13.633Z,102259.48
2019-03-30T08:07:42.110Z,102255.89
2019-03-30T08:10:10.837Z,102245.40
2019-03-30T08:12:39.340Z,102252.64
2019-03-30T08:15:08.859Z,102246.94
2019-03-30T08:17:37.319Z,102252.50
2019-03-30T08:20:07.368Z,102249.35
2019-03-30T08:22:35.834Z,102246.69
2019-03-30T08:25:05.926Z,102248.80
2019-03-30T08:27:34.421Z,102248.77
2019-03-30T08:30:03.065Z,102256.48
2019-03-30T08:32:31.537Z,102242.53
2019-03-30T08:35:00.036Z,102242.91
2019-03-30T08:37:28.782Z,102242.01
2019-03-30T08:39:57.261Z,102244.13
2019-03-30T08:42:25.784Z,102237.11
2019-03-30T08:44:54.256Z,102239.80
2019-03-30T08:47:22.715Z,102234.55
2019-03-30T08:49:51.225Z,102235.31
2019-03-30T08:52:19.686Z,102232.16
2019-03-30T08:54:49.627Z,102229.02
2019-03-30T08:57:18.108Z,102230.64
2019-03-30T08:59:46.586Z,102229.66
2019-03-30T09:02:15.465Z,102220.47
2019-03-30T09:04:44.040Z,102218.17
2019-03-30T09:07:12.516Z,102221.94
2019-03-30T09:09:40.988Z,102220.86
2019-03-30T09:12:09.514Z,102214.56
2019-03-30T09:14:37.999Z,102212.65
2019-03-30T09:17:06.484Z,102201.64
2019-03-30T09:19:35.021Z,102195.81
2019-03-30T09:22:03.566Z,102198.19
2019-03-30T09:24:32.043Z,102193.18
2019-03-30T09:27:00.559Z,102194.73
2019-03-30T09:29:29.027Z,102194.98
2019-03-30T09:31:57.501Z,102190.88
2019-03-30T09:34:26.004Z,102187.28
2019-03-30T09:36:54.708Z,102179.22
2019-03-30T09:39:23.256Z,102176.89
2019-03-30T09:41:51.739Z,102177.52
2019-03-30T09:44:21.942Z,102175.13
2019-03-30T09:46:50.414Z,102167.08
2019-03-30T09:49:18.885Z,102166.88
2019-03-30T09:51:47.349Z,102161.45
2019-03-30T09:54:23.536Z,102153.01
2019-03-30T09:56:46.046Z,102152.78
2019-03-30T09:59:14.538Z,102146.93
2019-03-30T10:01:43.026Z,102150.65
2019-03-30T10:04:11.524Z,102156.51
2019-03-30T10:06:40.002Z,102146.23
2019-03-30T10:09:08.555Z,102146.41
2019-03-30T10:11:37.093Z,102140.05
2019-03-30T10:14:05.635Z,102144.14
2019-03-30T10:16:34.135Z,102134.28
2019-03-30T10:19:02.606Z,102133.61
2019-03-30T10:21:31.077Z,102127.62
2019-03-30T10:23:59.581Z,102126.89
2019-03-30T10:26:28.062Z,102115.66
2019-03-30T10:28:56.625Z,102116.20
2019-03-30T10:31:25.126Z,102111.95
2019-03-30T10:33:53.607Z,102112.92
2019-03-30T10:36:22.093Z,102111.69
2019-03-30T10:38:50.627Z,102103.89
2019-03-30T10:41:19.106Z,102100.94
2019-03-30T10:43:47.567Z,102103.14
2019-03-30T10:46:16.078Z,102095.82
2019-03-30T10:48:44.551Z,102095.01
2019-03-30T10:51:13.026Z,102095.09
2019-03-30T10:53:41.543Z,102095.63
2019-03-30T10:56:10.008Z,102090.02
2019-03-30T10:58:38.490Z,102086.61
2019-03-30T11:01:06.983Z,102080.58
2019-03-30T11:03:35.470Z,102085.02
2019-03-30T11:06:03.941Z,102071.11
2019-03-30T11:08:32.466Z,102072.05
2019-03-30T11:11:00.946Z,102062.06
2019-03-30T11:13:29.449Z,102062.58
2019-03-30T11:15:57.960Z,102055.60
2019-03-30T11:18:26.458Z,102059.97
2019-03-30T11:20:54.932Z,102054.30
2019-03-30T11:23:23.473Z,102047.78
2019-03-30T11:25:51.921Z,102047.40
2019-03-30T11:28:20.988Z,102043.55
2019-03-30T11:30:49.483Z,102033.09
2019-03-30T11:33:17.949Z,102031.84
2019-03-30T11:35:46.517Z,102033.66
2019-03-30T11:38:15.256Z,102033.30
2019-03-30T11:40:43.730Z,102022.81
2019-03-30T11:43:12.202Z,102021.97
2019-03-30T11:45:40.802Z,102018.91
2019-03-30T11:48:09.271Z,102010.18
2019-03-30T11:50:37.749Z,102005.82
2019-03-30T11:53:06.276Z,102007.14
2019-03-30T11:55:34.741Z,101991.38
2019-03-30T11:58:03.233Z,101990.52
2019-03-30T12:00:31.748Z,101981.30
2019-03-30T12:03:00.289Z,101982.19
2019-03-30T12:05:28.782Z,101979.14
2019-03-30T12:07:57.359Z,101965.99
2019-03-30T12:10:25.866Z,101967.75
2019-03-30T12:12:54.335Z,101961.66
2019-03-30T12:15:22.852Z,101947.64
2019-03-30T12:17:51.334Z,101950.69
2019-03-30T12:20:19.869Z,101938.89
2019-03-30T12:22:48.396Z,101931.00
2019-03-30T12:25:16.960Z,101931.00
2019-03-30T12:27:45.474Z,101927.95
2019-03-30T12:30:14.097Z,101939.34
2019-03-30T12:32:42.570Z,101925.35
2019-03-30T12:35:11.159Z,101924.49
2019-03-30T12:37:39.644Z,101901.70
2019-03-30T12:40:09.146Z,101912.22
2019-03-30T12:42:37.623Z,101908.72
2019-03-30T12:45:07.875Z,101907.39
2019-03-30T12:47:36.421Z,101899.94
2019-03-30T12:50:06.622Z,101897.75
2019-03-30T12:52:35.191Z,101898.24
2019-03-30T12:55:03.866Z,101893.39
2019-03-30T12:57:32.471Z,101888.10
2019-03-30T13:00:00.961Z,101885.06
2019-03-30T13:02:29.493Z,101883.30
2019-03-30T13:04:58.130Z,101887.28
2019-03-30T13:07:26.638Z,101877.63
2019-03-30T13:09:55.109Z,101878.52
2019-03-30T13:12:23.574Z,101874.10
2019-03-30T13:14:52.086Z,101872.78
2019-03-30T13:17:20.552Z,101871.02
2019-03-30T13:19:49.030Z,101867.51
2019-03-30T13:22:17.526Z,101863.56
2019-03-30T13:24:45.993Z,101866.61
2019-03-30T13:27:14.476Z,101861.34
2019-03-30T13:29:42.964Z,101860.89
2019-03-30T13:32:11.441Z,101852.98
2019-03-30T13:34:39.915Z,101850.31
2019-03-30T13:37:20.051Z,101851.64
2019-03-30T13:39:48.565Z,101845.49
2019-03-30T13:42:17.132Z,101844.19
2019-03-30T13:44:45.614Z,101847.28
2019-03-30T13:47:14.079Z,101841.17
2019-03-30T13:49:42.559Z,101838.97
2019-03-30T13:52:11.074Z,101829.78
2019-03-30T13:54:39.697Z,101825.84
2019-03-30T13:57:08.197Z,101819.72
2019-03-30T13:59:37.718Z,101816.66
2019-03-30T14:02:06.185Z,101812.72
2019-03-30T14:04:34.650Z,101809.65
2019-03-30T14:07:03.141Z,101806.13
2019-03-30T14:09:31.606Z,101798.68
2019-03-30T14:12:00.072Z,101800.87
2019-03-30T14:14:28.607Z,101796.03
2019-03-30T14:16:57.078Z,101792.53
2019-03-30T14:19:25.558Z,101790.77
2019-03-30T14:21:54.061Z,101787.27
2019-03-30T14:24:22.526Z,101784.61
2019-03-30T14:26:51.010Z,101780.67
2019-03-30T14:29:19.534Z,101779.36
2019-03-30T14:31:48.051Z,101771.45
2019-03-30T14:34:16.482Z,101767.50
2019-03-30T14:36:44.988Z,101768.83
2019-03-30T14:39:13.459Z,101764.42
2019-03-30T14:41:41.929Z,101768.38
2019-03-30T14:44:10.702Z,101757.88
2019-03-30T14:46:39.218Z,101753.95
2019-03-30T14:49:07.703Z,101750.47
2019-03-30T14:51:36.297Z,101753.53
2019-03-30T14:54:04.850Z,101746.13
2019-03-30T14:56:44.961Z,101746.55
2019-03-30T14:59:10.183Z,101742.19
2019-03-30T15:01:33.756Z,101734.75
2019-03-30T15:04:02.223Z,101733.91
2019-03-30T15:06:30.732Z,101735.66
2019-03-30T15:08:59.202Z,101729.09
2019-03-30T15:11:27.775Z,101734.72
2019-03-30T15:13:56.283Z,101734.72
2019-03-30T15:16:24.746Z,101725.07
2019-03-30T15:18:53.274Z,101720.72
2019-03-30T15:21:21.720Z,101714.15
2019-03-30T15:23:50.183Z,101709.35
2019-03-30T15:26:21.972Z,101701.50
2019-03-30T15:28:48.927Z,101700.62
2019-03-30T15:31:17.389Z,101701.50
2019-03-30T15:33:45.861Z,101703.69
2019-03-30T15:36:14.375Z,101697.14
2019-03-30T15:38:42.845Z,101705.44
2019-03-30T15:41:11.307Z,101695.84
2019-03-30T15:43:39.810Z,101697.14
2019-03-30T15:46:08.401Z,101695.42
2019-03-30T15:48:36.921Z,101693.69
2019-03-30T15:51:05.427Z,101686.66
2019-03-30T15:53:33.885Z,101689.77
2019-03-30T15:56:02.416Z,101681.44
2019-03-30T15:58:30.902Z,101681.48
2019-03-30T16:00:59.374Z,101679.73
2019-03-30T16:03:27.836Z,101673.59
2019-03-30T16:05:56.342Z,101674.48
2019-03-30T16:08:24.821Z,101672.72
2019-03-30T16:10:53.293Z,101671.41
2019-03-30T16:13:21.831Z,101672.27
2019-03-30T16:15:50.346Z,101666.59
2019-03-30T16:18:18.817Z,101662.22
2019-03-30T16:20:47.330Z,101667.46
2019-03-30T16:23:15.824Z,101661.80
2019-03-30T16:25:44.298Z,101667.05
2019-03-30T16:28:12.809Z,101671.41
2019-03-30T16:30:41.347Z,101669.67
2019-03-30T16:33:09.820Z,101670.56
2019-03-30T16:35:38.333Z,101664.45
2019-03-30T16:38:06.806Z,101664.44
2019-03-30T16:40:35.269Z,101664.45
2019-03-30T16:43:03.772Z,101662.25
2019-03-30T16:45:32.239Z,101661.39
2019-03-30T16:48:01.124Z,101654.84
2019-03-30T16:50:29.628Z,101653.08
2019-03-30T16:52:58.100Z,101660.91
2019-03-30T16:55:26.582Z,101654.34
2019-03-30T16:57:55.086Z,101660.05
2019-03-30T17:00:23.565Z,101659.18
2019-03-30T17:02:52.079Z,101658.30
2019-03-30T17:05:20.568Z,101655.66
2019-03-30T17:07:49.030Z,101656.13
2019-03-30T17:10:17.555Z,101654.84
2019-03-30T17:12:46.049Z,101652.20
2019-03-30T17:15:14.982Z,101655.22
2019-03-30T17:17:43.445Z,101649.11
2019-03-30T17:20:12.135Z,101651.29
2019-03-30T17:22:40.670Z,101642.98
2019-03-30T17:25:09.215Z,101649.50
2019-03-30T17:27:37.711Z,101643.80
2019-03-30T17:30:09.400Z,101640.27
2019-03-30T17:32:37.943Z,101642.42
2019-03-30T17:35:07.148Z,101639.26
2019-03-30T17:37:35.595Z,101643.61
2019-03-30T17:40:08.157Z,101646.63
2019-03-30T17:42:38.762Z,101649.16
2019-03-30T17:45:09.134Z,101650.00
2019-03-30T17:47:37.605Z,101649.53
2019-03-30T17:50:07.659Z,101652.95
2019-03-30T17:52:36.165Z,101651.57
2019-03-30T17:55:04.978Z,101655.04
2019-03-30T17:57:33.485Z,101660.64
2019-03-30T18:00:01.957Z,101654.92
2019-03-30T18:02:30.425Z,101652.24
2019-03-30T18:04:58.953Z,101657.88
2019-03-30T18:07:27.437Z,101650.36
2019-03-30T18:09:55.900Z,101656.85
2019-03-30T18:12:24.389Z,101657.71
2019-03-30T18:14:52.863Z,101653.31
2019-03-30T18:17:21.402Z,101661.98
2019-03-30T18:19:49.925Z,101655.83
2019-03-30T18:22:18.394Z,101659.70
2019-03-30T18:24:46.866Z,101654.86
2019-03-30T18:27:15.420Z,101655.68
2019-03-30T18:29:43.984Z,101664.37
2019-03-30T18:32:12.462Z,101668.23
2019-03-30T18:34:41.545Z,101662.98
2019-03-30T18:37:10.167Z,101662.05
2019-03-30T18:39:38.640Z,101663.34
2019-03-30T18:42:07.159Z,101658.92
2019-03-30T18:44:35.894Z,101665.89
2019-03-30T18:47:04.350Z,101664.13
2019-03-30T18:49:32.846Z,101662.35
2019-03-30T18:52:05.426Z,101665.80
2019-03-30T18:54:34.132Z,101667.95
2019-03-30T18:57:02.841Z,101664.91
2019-03-30T18:59:31.318Z,101664.88
2019-03-30T19:01:59.791Z,101666.16
2019-03-30T19:04:28.285Z,101662.67
2019-03-30T19:06:56.749Z,101671.81
2019-03-30T19:09:25.229Z,101676.14
2019-03-30T19:11:53.742Z,101669.61
2019-03-30T19:14:22.222Z,101670.91
2019-03-30T19:16:50.696Z,101671.34
2019-03-30T19:19:19.242Z,101673.93
2019-03-30T19:21:47.690Z,101682.64
2019-03-30T19:24:16.158Z,101645.86
2019-03-30T19:26:44.648Z,101682.61
2019-03-30T19:29:13.209Z,101683.02
2019-03-30T19:31:41.663Z,101676.02
2019-03-30T19:34:10.164Z,101677.25
2019-03-30T19:36:38.638Z,101675.05
2019-03-30T19:39:08.664Z,101678.94
2019-03-30T19:41:37.170Z,101679.77
2019-03-30T19:44:05.638Z,101677.16
2019-03-30T19:46:35.349Z,101678.44
2019-03-30T19:49:03.914Z,101689.75
2019-03-30T19:51:32.397Z,101682.75
2019-03-30T19:54:01.866Z,101687.07
2019-03-30T19:56:30.371Z,101684.46
2019-03-30T19:59:10.134Z,101682.28
2019-03-30T20:01:29.421Z,101682.72
2019-03-30T20:03:57.930Z,101681.41
2019-03-30T20:06:26.400Z,101678.37
2019-03-30T20:08:54.884Z,101676.19
2019-03-30T20:11:23.485Z,101671.38
2019-03-30T20:13:51.954Z,101665.64
2019-03-30T20:16:20.416Z,101663.03
2019-03-30T20:18:48.924Z,101658.62
2019-03-30T20:21:17.458Z,101662.90
2019-03-30T20:23:45.922Z,101656.34
2019-03-30T20:26:14.446Z,101652.32
2019-03-30T20:28:42.914Z,101653.55
2019-03-30T20:31:11.395Z,101648.66
2019-03-30T20:33:39.892Z,101653.80
2019-03-30T20:36:08.364Z,101665.00
2019-03-30T20:38:36.823Z,101659.67
2019-03-30T20:41:05.335Z,101659.12
2019-03-30T20:43:33.791Z,101660.34
2019-03-30T20:46:02.270Z,101661.13
2019-03-30T20:48:30.793Z,101655.83
2019-03-30T20:50:59.261Z,101664.44
2019-03-30T20:53:27.808Z,101660.01
2019-03-30T20:55:57.613Z,101653.41
2019-03-30T20:58:26.082Z,101653.75
2019-03-30T21:00:54.554Z,101658.41
2019-03-30T21:03:23.160Z,101656.54
2019-03-30T21:05:51.632Z,101652.92
2019-03-30T21:08:20.117Z,101659.27
2019-03-30T21:10:48.625Z,101660.86
2019-03-30T21:13:17.088Z,101655.47
2019-03-30T21:15:45.679Z,101665.39
2019-03-30T21:18:14.191Z,101660.05
2019-03-30T21:20:42.671Z,101660.81
2019-03-30T21:23:11.155Z,101659.84
2019-03-30T21:25:39.670Z,101659.27
2019-03-30T21:28:08.151Z,101656.56
2019-03-30T21:30:36.614Z,101659.88
2019-03-30T21:33:05.203Z,101654.57
2019-03-30T21:35:33.673Z,101650.99
2019-03-30T21:38:02.154Z,101653.91
2019-03-30T21:40:30.643Z,101643.35
2019-03-30T21:42:59.113Z,101644.96
2019-03-30T21:45:27.593Z,101642.64
2019-03-30T21:47:56.110Z,101645.99
2019-03-30T21:50:24.590Z,101641.92
2019-03-30T21:52:53.068Z,101640.02
2019-03-30T21:55:21.573Z,101643.31
2019-03-30T21:57:51.902Z,101641.89
2019-03-30T22:00:37.475Z,101646.48
2019-03-30T22:03:06.207Z,101641.52
2019-03-30T22:05:35.243Z,101638.30
2019-03-30T22:08:04.664Z,101636.88
2019-03-30T22:10:33.125Z,101632.47
2019-03-30T22:13:01.594Z,101632.80
2019-03-30T22:15:30.378Z,101629.27
2019-03-30T22:17:58.853Z,101630.02
2019-03-30T22:20:27.378Z,101629.02
2019-03-30T22:22:55.877Z,101625.43
2019-03-30T22:25:24.338Z,101636.57
2019-03-30T22:27:52.806Z,101638.23
2019-03-30T22:30:24.934Z,101643.30
2019-03-30T22:32:51.521Z,101644.89
2019-03-30T22:35:19.987Z,101658.19
2019-03-30T22:37:48.485Z,101658.42
2019-03-30T22:40:16.948Z,101664.34
2019-03-30T22:42:45.416Z,101656.42
2019-03-30T22:45:13.905Z,101658.86
2019-03-30T22:47:42.371Z,101657.91
2019-03-30T22:50:11.080Z,101662.55
2019-03-30T22:52:39.575Z,101661.17
2019-03-30T22:55:08.588Z,101658.44
2019-03-30T22:57:37.047Z,101660.11
2019-03-30T23:00:07.487Z,101671.28
2019-03-30T23:02:35.951Z,101669.53
2019-03-30T23:05:04.867Z,101665.14
2019-03-30T23:07:33.394Z,101665.95
2019-03-30T23:10:01.934Z,101669.39
2019-03-30T23:12:30.402Z,101674.95
2019-03-30T23:14:58.920Z,101677.47
2019-03-30T23:17:27.387Z,101684.77
2019-03-30T23:19:55.862Z,101678.26
2019-03-30T23:22:24.364Z,101680.34
2019-03-30T23:24:52.843Z,101686.33
2019-03-30T23:27:21.308Z,101685.42
2019-03-30T23:29:49.816Z,101692.81
2019-03-30T23:32:18.293Z,101697.52
2019-03-30T23:34:46.752Z,101696.65
2019-03-30T23:37:15.257Z,101693.17
2019-03-30T23:39:43.725Z,101702.69
2019-03-30T23:42:12.261Z,101706.09
2019-03-30T23:44:40.749Z,101710.83
2019-03-30T23:47:09.226Z,101708.16
2019-03-30T23:49:37.708Z,101718.92
2019-03-30T23:52:06.205Z,101716.23
2019-03-30T23:54:34.677Z,101717.87
2019-03-30T23:57:03.139Z,101718.17
2019-03-30T23:59:31.662Z,101719.33
